Aeroporto :
LOGIN :

Iscrizione | Disclaimer

   EN    FR    IT 

 










Sommario :    VFR   VFR Marginale   IFR   IFR Intensivo   IFR Molto Intensivo
Visibilità : 
Base nubi : 
>= 8 km
>= 3000ft
5 / 8 km
1000 / 3000 ft
1500m / 5 km
500 / 1000 ft
800 / 1500m
200 / 500 ft
< 800m
< 200 ft
Simboli :   Temporali  Nebbia  Neve Forte  Precipitazioni Forti  Vento > 20 kt
SIGMETs :   Varie  Temporali  Ghiacco  Turbolenza  Onda orograficha  Ceneri Vulcaniche






- Altitudine del aeroporto : 82 ft
- Codice IATA : AAR


EKAH - Aarhus Tirstrup

ULTIMO METAR :
  • 101750Z AUTO 08005KT 9999NDV NCD 25/18 Q1021

METARs OBSOLETI :
  • 101720Z AUTO 08006KT 9999NDV NCD 26/18 Q1021
  • 101650Z AUTO 07006KT 9999NDV NCD 26/17 Q1021
  • 101620Z AUTO 08007KT 9999NDV NCD 26/16 Q1021
  • 101550Z AUTO 07007KT 040V100 9999NDV NCD 27/16 Q1021
  • 101520Z AUTO 06007KT 020V090 9999NDV NCD 28/14 Q1021
  • 101450Z AUTO 05008KT 030V090 9999NDV FEW096/// 28/14 Q1021

TAF TAF EKAH
Valido dal 10 a 18 ore il 11 a 18 ore UTC


101657Z 1018/1118 08006KT CAVOK
BECMG 1108/1110 14010KT



MetMap, La meteo Aeronautica in un colpo d'occhio ! - Copyright ORBIFLY Dicembre 2007 - Disclaimer

ORBIFLY MET'MAP TEAM :

Programmazione e sviluppo : Alexandra Zaïnal
Concezione : Baudouin d'Aumeries
Aiuto per la programmazione : Marc-Olivier Méhu
Supporto tecnico e logistico : Manuel Goepfert
Aiuto per la traduzione : Arnaldo La Scala

Contatto : metmap@orbifly.com




FONTI E CREDITI :

   NOAA